Latest Weather Observations for Nullarbor

IDS60801

Issued at 2:31 pm CST Tuesday 30 August 2016 (issued every 30 minutes, with the page automatically refreshed every 10 minutes)

About weather observations | Map of weather stations | Latest weather observations for SA | Other Formats
Station Details ID: 018106 Name: NULLARBOR Lat: -31.45 Lon: 130.90 Height: 64.0 m
Data from the previous 72 hours. | See also: Recent months at Nullarbor
Date/Time
CST
Temp
°C
App
Temp
°C
Dew
Point
°C
Rel
Hum
%
Delta-T
°C
Wind Press
QNH
hPa
Press
MSL
hPa
Rain since
9am
mm
Dir  Spd
km/h
Gust
km/h
Spd
kts
Gust
kts
30/02:30pm 18.3 11.8 8.8 54 4.9 WSW 33 46 18 25 1014.1 1014.1 0.0
30/02:00pm 18.1 11.9 9.2 56 4.7 WSW 32 41 17 22 1014.0 1014.0 0.0
30/01:30pm 18.0 12.5 9.1 56 4.7 WSW 28 39 15 21 1014.1 1014.1 0.0
30/01:00pm 17.9 11.9 8.7 55 4.8 W 30 39 16 21 1014.2 1014.2 0.0
30/12:30pm 18.3 12.3 8.6 53 5.0 W 30 41 16 22 1014.4 1014.4 0.0
30/12:00pm 18.4 13.0 9.5 56 4.7 WNW 28 41 15 22 1014.5 1014.5 0.0
30/11:30am 17.1 12.1 9.5 61 4.0 W 26 35 14 19 1014.7 1014.7 0.0
30/11:00am 15.9 10.9 9.6 66 3.3 W 26 35 14 19 1014.6 1014.6 0.0
30/10:30am 15.1 8.9 9.5 69 2.9 W 32 41 17 22 1014.6 1014.6 0.0
30/10:00am 14.7 9.0 9.7 72 2.6 W 30 39 16 21 1014.4 1014.4 0.0
30/09:30am 13.9 8.6 9.9 77 2.1 WNW 28 35 15 19 1014.2 1014.2 0.0
30/09:00am 13.3 7.6 9.7 79 1.8 WNW 30 37 16 20 1014.0 1014.0 0.0
30/08:38am 13.0 7.7 9.8 81 1.6 WNW 28 39 15 21 1013.6 1013.6 0.0
30/08:30am 12.9 8.4 10.1 83 1.4 WNW 24 35 13 19 1013.5 1013.5 0.0
30/08:00am 11.9 5.9 10.1 89 0.9 W 32 43 17 23 1013.2 1013.2 0.0
30/07:30am 10.9 6.9 10.3 96 0.3 W 22 33 12 18 1012.6 1012.6 0.0
30/07:04am 8.0 4.9 7.1 94 0.4 WNW 13 15 7 8 1012.1 1012.1 0.0
30/07:00am 7.9 4.7 6.8 93 0.5 WNW 13 15 7 8 1012.0 1012.0 0.0
30/06:30am 8.3 5.5 6.8 90 0.7 NW 11 13 6 7 1011.4 1011.4 0.0
30/06:00am 9.2 5.6 6.8 85 1.1 NW 15 17 8 9 1010.8 1010.8 0.0
30/05:30am 9.7 6.3 6.1 78 1.7 NW 13 17 7 9 1010.4 1010.4 0.0
30/05:00am 10.7 6.6 6.3 74 2.1 WNW 17 19 9 10 1010.2 1010.2 0.0
30/04:30am 11.4 7.2 5.7 68 2.7 NW 17 19 9 10 1009.9 1009.9 0.0
30/04:00am 11.8 7.5 5.4 65 3.0 NW 17 20 9 11 1009.8 1009.8 0.0
30/03:30am 12.1 7.9 5.5 64 3.1 NW 17 22 9 12 1009.8 1009.8 0.0
30/03:00am 11.3 6.6 5.2 66 2.8 NW 19 24 10 13 1009.9 1009.9 0.0
30/02:30am 10.5 6.1 4.6 67 2.7 NW 17 20 9 11 1010.0 1010.0 0.0
30/02:00am 10.0 5.9 4.6 69 2.4 NNW 15 17 8 9 1010.0 1010.0 0.0
30/01:30am 9.9 5.9 4.7 70 2.3 NW 15 17 8 9 1010.0 1010.0 0.0
30/01:00am 9.2 5.2 4.8 74 2.0 NNW 15 17 8 9 1009.9 1009.9 0.0
30/12:30am 9.4 5.4 4.8 73 2.1 NW 15 17 8 9 1009.9 1009.9 0.0
30/12:00am 11.0 7.1 5.3 68 2.6 NW 15 17 8 9 1009.9 1009.9 0.0
 
Date/Time
CST
Temp
°C
App
Temp
°C
Dew
Point
°C
Rel
Hum
%
Delta-T
°C
Wind Press
QNH
hPa
Press
MSL
hPa
Rain since
9am
mm
Dir  Spd
km/h
Gust
km/h
Spd
kts
Gust
kts
29/11:30pm 11.3 8.2 5.4 67 2.7 NW 11 13 6 7 1009.9 1009.9 0.0
29/11:00pm 12.8 8.9 5.5 61 3.4 WNW 15 17 8 9 1010.0 1010.0 0.0
29/10:30pm 13.8 9.5 5.4 57 4.0 NW 17 24 9 13 1009.9 1009.9 0.0
29/10:00pm 12.9 9.0 5.3 60 3.5 NNW 15 17 8 9 1009.8 1009.8 0.0
29/09:30pm 15.2 11.4 5.7 53 4.6 NW 15 17 8 9 1009.6 1009.6 0.0
29/09:00pm 16.2 12.4 5.8 50 5.0 NW 15 19 8 10 1009.5 1009.5 0.0
29/08:30pm 16.7 12.9 5.9 49 5.3 NW 15 19 8 10 1009.1 1009.1 0.0
29/08:00pm 17.1 13.3 6.0 48 5.4 NW 15 19 8 10 1008.7 1008.7 0.0
29/07:30pm 17.0 13.2 5.6 47 5.5 NW 15 17 8 9 1008.4 1008.4 0.0
29/07:00pm 17.7 13.8 5.3 44 6.0 NW 15 20 8 11 1008.0 1008.0 0.0
29/06:30pm 19.1 13.4 4.8 39 6.9 NW 24 32 13 17 1007.5 1007.5 0.0
29/06:00pm 20.0 13.9 4.9 37 7.4 NW 26 35 14 19 1007.0 1006.9 0.0
29/05:30pm 20.3 14.3 5.1 37 7.5 NW 26 37 14 20 1006.4 1006.4 0.0
29/05:00pm 21.4 14.2 4.9 34 8.1 NW 32 41 17 22 1005.9 1005.9 0.0
29/04:30pm 21.0 13.7 4.6 34 8.0 NW 32 43 17 23 1005.7 1005.7 0.0
29/04:00pm 20.7 13.2 4.7 35 7.8 NW 33 48 18 26 1005.8 1005.8 0.0
29/03:30pm 20.8 14.0 5.2 36 7.7 NW 30 50 16 27 1005.9 1005.9 0.0
29/03:01pm 21.6 14.8 5.1 34 8.2 NW 30 50 16 27 1005.8 1005.8 0.0
29/03:00pm 21.8 15.1 5.7 35 8.1 NW 30 41 16 22 1005.8 1005.8 0.0
29/02:40pm 22.0 14.9 5.4 34 8.3 NW 32 50 17 27 1005.9 1005.9 0.0
29/02:30pm 21.4 14.3 5.7 36 7.9 NW 32 43 17 23 1005.9 1005.9 0.0
29/02:02pm 21.2 14.0 5.1 35 8.0 NW 32 50 17 27 1006.2 1006.2 0.0
29/02:00pm 22.0 14.8 5.0 33 8.4 NW 32 43 17 23 1006.2 1006.2 0.0
29/01:30pm 20.6 12.8 5.0 36 7.7 NNW 35 48 19 26 1006.4 1006.4 0.0
29/01:00pm 20.1 12.2 4.6 36 7.5 NNW 35 50 19 27 1007.0 1006.9 0.0
29/12:52pm 20.1 13.0 5.4 38 7.3 NNW 32 50 17 27 1007.1 1007.1 0.0
29/12:30pm 19.3 11.9 5.0 39 7.0 NNW 33 46 18 25 1007.5 1007.5 0.0
29/12:00pm 19.9 13.0 6.3 41 6.8 NW 32 57 17 31 1007.8 1007.8 0.0
29/11:47am 19.7 12.6 6.4 42 6.7 NNW 33 52 18 28 1008.0 1008.0 0.0
29/11:30am 19.0 11.9 6.2 43 6.4 NNW 33 46 18 25 1008.1 1008.1 0.0
29/11:00am 18.3 11.7 6.2 45 6.0 NW 30 43 16 23 1008.4 1008.4 0.0
29/10:30am 17.6 11.1 6.5 48 5.5 NNW 30 43 16 23 1008.4 1008.4 0.0
29/10:00am 16.7 9.7 6.2 50 5.1 NW 32 39 17 21 1008.7 1008.7 0.0
29/09:30am 15.9 9.4 6.6 54 4.6 NNW 30 37 16 20 1008.8 1008.8 0.0
29/09:00am 14.6 8.5 6.4 58 4.0 NNW 28 39 15 21 1008.7 1008.7 0.0
29/08:30am 13.3 7.0 5.9 61 3.5 NNW 28 33 15 18 1008.5 1008.5 0.0
29/08:00am 11.7 6.9 5.8 67 2.8 NNW 20 26 11 14 1008.1 1008.1 0.0
29/07:30am 9.9 5.7 5.5 74 2.0 NNW 17 24 9 13 1007.9 1007.9 0.0
29/07:00am 9.8 5.2 5.4 74 2.0 NNW 19 22 10 12 1007.6 1007.6 0.0
29/06:30am 9.6 5.0 5.8 77 1.8 NNW 19 20 10 11 1007.4 1007.4 0.0
29/06:00am 9.6 5.1 6.3 80 1.5 N 19 24 10 13 1007.3 1007.3 0.0
29/05:30am 9.7 5.6 6.2 79 1.6 N 17 20 9 11 1007.2 1007.2 0.0
29/05:00am 10.8 6.8 6.6 75 2.0 N 17 20 9 11 1006.7 1006.7 0.0
29/04:30am 10.7 7.1 6.8 77 1.9 N 15 19 8 10 1006.4 1006.4 0.0
29/04:00am 11.1 7.6 7.0 76 2.0 N 15 17 8 9 1006.4 1006.4 0.0
29/03:30am 10.7 7.2 7.2 79 1.7 N 15 19 8 10 1006.4 1006.4 0.0
29/03:00am 10.5 7.1 7.7 83 1.4 N 15 17 8 9 1006.6 1006.6 0.0
29/02:30am 9.6 6.1 7.4 86 1.1 NNE 15 17 8 9 1006.7 1006.7 0.0
29/02:00am 10.2 7.2 7.8 85 1.2 N 13 15 7 8 1006.8 1006.8 0.0
29/01:30am 11.0 8.9 8.2 83 1.4 N 9 13 5 7 1006.8 1006.8 0.0
29/01:00am 11.5 9.5 8.5 82 1.5 NNW 9 11 5 6 1007.0 1006.9 0.0
29/12:30am 12.3 9.9 8.8 79 1.8 NW 11 13 6 7 1007.1 1007.1 0.0
29/12:00am 13.7 11.1 9.4 75 2.2 NW 13 17 7 9 1006.7 1006.7 0.0
 
Date/Time
CST
Temp
°C
App
Temp
°C
Dew
Point
°C
Rel
Hum
%
Delta-T
°C
Wind Press
QNH
hPa
Press
MSL
hPa
Rain since
9am
mm
Dir  Spd
km/h
Gust
km/h
Spd
kts
Gust
kts
28/11:30pm 15.7 12.2 10.2 70 2.9 WNW 19 22 10 12 1006.4 1006.4 0.0
28/11:00pm 16.7 14.6 12.5 76 2.3 NNW 15 22 8 12 1006.4 1006.4 0.0
28/10:30pm 16.5 14.0 12.3 76 2.3 NNW 17 22 9 12 1006.0 1006.0 0.0
28/10:00pm 17.4 14.9 12.3 72 2.8 NNW 17 22 9 12 1005.9 1005.9 0.0
28/09:30pm 17.6 14.8 13.1 75 2.5 N 20 24 11 13 1005.8 1005.8 0.0
28/09:00pm 18.1 14.6 12.1 68 3.3 N 22 28 12 15 1006.2 1006.2 0.0
28/08:30pm 18.0 14.5 10.9 63 3.9 N 20 24 11 13 1005.8 1005.8 0.0
28/08:00pm 18.4 15.6 10.0 58 4.5 NNW 15 17 8 9 1005.5 1005.5 0.0
28/07:30pm 19.9 16.8 10.3 54 5.2 NW 17 22 9 12 1004.9 1004.9 0.0
28/07:00pm 20.1 17.8 10.5 54 5.2 NW 13 17 7 9 1004.5 1004.5 0.0
28/06:30pm 21.1 17.4 10.3 50 5.9 NW 20 28 11 15 1004.2 1004.2 0.0
28/06:00pm 21.3 16.9 10.5 50 5.9 NW 24 35 13 19 1004.2 1004.2 0.0
28/05:30pm 21.4 15.5 10.3 49 6.1 NW 32 44 17 24 1004.1 1004.1 0.0
28/05:11pm 21.7 16.5 10.2 48 6.3 NW 28 46 15 25 1003.9 1003.9 0.0
28/05:00pm 22.3 17.2 10.5 47 6.5 NW 28 39 15 21 1003.8 1003.8 0.0
28/04:30pm 21.6 16.1 10.7 50 6.0 NW 30 39 16 21 1003.7 1003.7 0.0
28/04:00pm 20.5 15.2 11.2 55 5.1 WNW 30 39 16 21 1003.6 1003.6 0.0
28/03:30pm 21.7 16.5 10.2 48 6.3 WNW 28 37 15 20 1003.1 1003.1 0.0
28/03:03pm 22.8 16.7 9.6 43 7.2 NW 32 50 17 27 1003.5 1003.5 0.0
28/03:00pm 23.6 17.1 8.1 37 8.3 NW 32 43 17 23 1003.4 1003.4 0.0
28/02:30pm 24.6 18.3 7.3 33 9.1 NW 30 43 16 23 1003.2 1003.2 0.0
28/02:02pm 25.0 18.2 6.7 31 9.5 NW 32 56 17 30 1003.3 1003.3 0.0
28/02:00pm 24.9 18.0 6.6 31 9.5 NW 32 44 17 24 1003.5 1003.5 0.0
28/01:32pm 25.7 19.2 6.3 29 10.1 WNW 30 48 16 26 1003.8 1003.8 0.0
28/01:30pm 25.5 19.4 6.7 30 9.9 NW 28 43 15 23 1003.7 1003.7 0.0
28/01:00pm 25.6 19.5 6.8 30 9.9 NW 28 39 15 21 1004.3 1004.3 0.0
28/12:30pm 24.6 18.7 5.9 30 9.6 WNW 26 39 14 21 1004.5 1004.5 0.0
28/12:00pm 23.7 18.0 6.5 33 8.9 WNW 26 33 14 18 1004.8 1004.8 0.0
28/11:30am 23.6 18.7 5.0 30 9.4 WNW 20 30 11 16 1004.5 1004.5 0.0
28/11:00am 22.7 16.7 3.3 28 9.4 WNW 24 32 13 17 1004.7 1004.7 0.0
28/10:30am 21.9 16.1 2.1 27 9.3 NW 22 33 12 18 1004.7 1004.7 0.0
28/10:01am 21.5 13.6 1.2 26 9.3 NNW 32 52 17 28 1005.4 1005.4 0.0
28/10:00am 21.5 13.7 1.7 27 9.2 NNW 32 46 17 25 1005.4 1005.4 0.0
28/09:30am 19.6 13.7 2.0 31 8.1 NW 22 32 12 17 1005.2 1005.2 0.0
28/09:00am 20.9 14.2 1.7 28 8.9 N 26 35 14 19 1004.9 1004.9 0.0
28/08:30am 18.6 13.1 2.0 33 7.6 N 20 28 11 15 1004.6 1004.6 0.0
28/08:00am 16.8 10.8 1.3 35 6.9 N 22 30 12 16 1004.7 1004.7 0.0
28/07:30am 16.2 9.1 1.1 36 6.7 NNE 28 37 15 20 1003.9 1003.9 0.0
28/07:00am 15.9 8.7 0.9 36 6.5 NNE 28 35 15 19 1003.4 1003.4 0.0
28/06:30am 15.2 8.9 1.4 39 6.1 NE 24 32 13 17 1003.4 1003.4 0.0
28/06:00am 13.5 7.5 1.2 43 5.3 NE 22 26 12 14 1003.8 1003.8 0.0
28/05:30am 13.2 7.2 1.2 44 5.2 NE 22 28 12 15 1004.0 1004.0 0.0
28/05:00am 13.5 7.5 1.2 43 5.3 NE 22 26 12 14 1004.2 1004.2 0.0
28/04:30am 13.8 7.9 1.5 43 5.3 NNE 22 26 12 14 1004.4 1004.4 0.0
28/04:00am 13.3 7.4 1.6 45 5.1 NNE 22 24 12 13 1004.9 1004.9 0.0
28/03:30am 13.4 7.8 1.4 44 5.2 NE 20 24 11 13 1005.3 1005.3 0.0
28/03:00am 14.1 8.5 1.4 42 5.5 NE 20 26 11 14 1005.7 1005.7 0.0
28/02:30am 15.4 9.4 1.2 38 6.2 NNE 22 28 12 15 1006.2 1006.2 0.0
28/02:00am 15.7 10.1 1.4 38 6.3 NE 20 26 11 14 1006.7 1006.7 0.0
28/01:30am 15.4 10.2 2.2 41 5.9 NE 19 22 10 12 1007.4 1007.4 0.0
28/01:00am 14.7 10.0 2.9 45 5.3 NE 17 20 9 11 1007.9 1007.9 0.0
28/12:30am 14.5 10.1 2.7 45 5.3 NE 15 19 8 10 1008.4 1008.4 0.0
28/12:00am 14.8 10.3 2.4 43 5.5 ENE 15 19 8 10 1008.7 1008.7 0.0
 
Date/Time
CST
Temp
°C
App
Temp
°C
Dew
Point
°C
Rel
Hum
%
Delta-T
°C
Wind Press
QNH
hPa
Press
MSL
hPa
Rain since
9am
mm
Dir  Spd
km/h
Gust
km/h
Spd
kts
Gust
kts
27/11:30pm 15.7 11.2 2.2 40 6.0 NE 15 19 8 10 1009.2 1009.2 0.0
27/11:00pm 16.2 11.3 1.9 38 6.4 NE 17 20 9 11 1009.4 1009.4 0.0
27/10:30pm 16.7 11.4 1.6 36 6.7 NE 19 22 10 12 1009.7 1009.7 0.0
27/10:00pm 17.1 11.5 1.5 35 7.0 NE 20 24 11 13 1010.1 1010.1 0.0
27/09:30pm 17.1 12.1 1.1 34 7.1 NE 17 22 9 12 1010.3 1010.3 0.0
27/09:00pm 17.6 12.0 1.2 33 7.3 NE 20 26 11 14 1010.2 1010.2 0.0
27/08:30pm 17.4 11.5 1.4 34 7.1 NE 22 28 12 15 1010.1 1010.1 0.0
27/08:00pm 17.4 12.0 1.4 34 7.1 NE 19 22 10 12 1010.2 1010.2 0.0
27/07:30pm 17.4 12.5 1.8 35 7.0 NE 17 19 9 10 1010.4 1010.4 0.0
27/07:00pm 18.1 13.5 1.6 33 7.4 NE 15 17 8 9 1010.4 1010.4 0.0
27/06:30pm 19.4 14.7 0.9 29 8.3 NNE 15 17 8 9 1010.3 1010.3 0.0
27/06:00pm 21.1 15.9 0.3 25 9.4 N 17 22 9 12 1010.4 1010.4 0.0
27/05:30pm 21.8 16.1 0.4 24 9.7 N 20 26 11 14 1010.2 1010.2 0.0
27/05:00pm 22.6 15.2 -0.8 21 10.4 N 28 35 15 19 1010.4 1010.4 0.0
27/04:30pm 22.8 15.9 0.0 22 10.4 N 26 35 14 19 1010.4 1010.4 0.0
27/04:00pm 22.8 15.5 0.0 22 10.3 N 28 35 15 19 1010.8 1010.8 0.0
27/03:30pm 23.4 16.2 0.5 22 10.5 N 28 37 15 20 1011.3 1011.3 0.0
27/03:00pm 23.3 16.1 0.4 22 10.5 N 28 41 15 22 1011.4 1011.4 0.0

Other Formats:

Comma delimited format used in spreadsheet applications
http://www.bom.gov.au/fwo/IDS60801/IDS60801.94651.axf

JavaScript Object Notation format (JSON) in row-major order
http://www.bom.gov.au/fwo/IDS60801/IDS60801.94651.json